Latest Weather Observations for Ballarat

IDV60801

Issued at 6:35 am EST Wednesday 30 July 2014 (issued every 30 minutes, with the page automatically refreshed every 10 minutes)

About weather observations | Map of weather stations | Latest weather observations for VIC | Other Formats
Station Details ID: 089002 Name: BALLARAT AERODROME Lat: -37.51 Lon: 143.79 Height: 435.2 m
Data from the previous 72 hours. | See also: Recent months at Ballarat
Date/Time
EST
Temp
°C
App
Temp
°C
Dew
Point
Rel
Hum
%
Delta-T
°C
Wind Press
QNH
hPa
Press
MSL
hPa
Rain
since 9 am
mm
Dir
 
Spd
km/h
Gust
km/h
Spd
kts
Gust
kts
30/06:30am 9.3 4.1 9.0 98 0.2 NNW 26 33 14 18 1012.4 - 2.8
30/06:00am 9.0 5.5 8.9 99 0.1 N 17 20 9 11 1012.3 1013.1 2.8
30/05:30am 6.8 3.1 6.5 98 0.1 NNW 15 20 8 11 1012.2 - 2.8
30/05:00am 8.1 4.0 8.0 99 0.0 NW 19 24 10 13 1011.7 - 2.8
30/04:30am 8.9 4.8 8.8 99 0.0 NW 20 22 11 12 1011.7 - 2.8
30/04:09am 8.9 5.1 8.9 100 0.0 NW 19 24 10 13 1011.8 - 2.8
30/04:00am 9.1 5.3 9.0 99 0.1 NW 19 24 10 13 1011.8 - 2.8
30/03:30am 9.8 6.2 9.7 99 0.1 NW 19 24 10 13 1012.2 - 2.8
30/03:18am 9.4 6.0 9.3 99 0.1 NNW 17 22 9 12 1012.3 - 2.8
30/03:00am 9.3 5.9 9.2 99 0.1 N 17 20 9 11 1012.2 1013.0 2.8
30/02:30am 9.1 6.0 9.0 99 0.1 NNW 15 17 8 9 1011.9 - 2.8
30/02:00am 9.6 6.2 9.3 98 0.2 NW 17 24 9 13 1011.9 - 2.8
30/01:30am 10.3 6.6 10.1 99 0.1 NW 20 30 11 16 1012.1 - 2.8
30/01:00am 10.4 6.7 10.2 99 0.1 NW 20 24 11 13 1012.1 - 2.6
30/12:30am 10.3 6.8 10.3 100 0.0 NNW 19 24 10 13 1012.1 - 2.6
30/12:24am 10.2 7.1 10.2 100 0.0 NNW 17 22 9 12 1012.1 - 2.6
30/12:06am 10.3 6.8 10.3 100 0.0 NNW 19 20 10 11 1012.1 - 2.6
30/12:00am 10.4 7.0 10.4 100 0.0 NNW 19 20 10 11 1011.9 1012.8 2.6
 
Date/Time
EST
Temp
°C
App
Temp
°C
Dew
Point
Rel
Hum
%
Delta-T
°C
Wind Press
QNH
hPa
Press
MSL
hPa
Rain
since 9 am
mm
Dir
 
Spd
km/h
Gust
km/h
Spd
kts
Gust
kts
29/11:46pm 10.4 6.7 10.2 99 0.1 NW 20 24 11 13 1011.9 - 2.6
29/11:37pm 10.5 6.5 10.3 99 0.1 NNW 22 28 12 15 1011.9 - 2.2
29/11:30pm 10.5 6.5 10.3 99 0.1 NNW 22 28 12 15 1011.9 - 2.2
29/11:00pm 10.4 6.7 10.2 99 0.1 NNW 20 24 11 13 1011.7 - 2.2
29/10:30pm 10.5 6.5 10.3 99 0.1 NNW 22 28 12 15 1011.5 - 2.2
29/10:00pm 10.8 6.1 10.6 99 0.1 NNW 26 32 14 17 1011.4 - 2.2
29/09:30pm 10.9 5.8 10.6 98 0.2 NNW 28 35 15 19 1011.1 - 2.2
29/09:00pm 11.0 6.7 10.7 98 0.2 N 24 30 13 16 1010.8 1011.6 2.2
29/08:30pm 11.0 6.7 10.7 98 0.2 NNW 24 30 13 16 1010.9 - 2.2
29/08:00pm 11.2 6.9 10.9 98 0.2 NW 24 33 13 18 1010.9 - 2.2
29/07:30pm 11.0 6.7 10.8 99 0.1 NW 24 33 13 18 1010.4 - 2.2
29/07:26pm 10.8 6.8 10.6 99 0.1 NW 22 32 12 17 1010.4 - 2.2
29/07:08pm 10.9 6.2 10.7 99 0.1 NW 26 32 14 17 1010.7 - 1.8
29/07:00pm 10.9 6.6 10.7 99 0.1 NNW 24 32 13 17 1010.5 - 1.6
29/06:30pm 11.0 5.6 10.8 99 0.1 NNW 30 44 16 24 1010.2 - 1.6
29/06:10pm 11.2 5.8 11.0 99 0.1 NW 30 37 16 20 1010.1 - 1.6
29/06:07pm 11.1 6.1 10.9 99 0.1 NW 28 35 15 19 1010.1 - 1.6
29/06:00pm 10.9 5.8 10.7 99 0.1 NW 28 37 15 20 1010.0 1010.8 1.6
29/05:48pm 10.9 5.5 10.9 100 0.0 NNW 30 39 16 21 1009.9 - 1.6
29/05:43pm 10.8 5.8 10.8 100 0.0 NNW 28 39 15 21 1009.8 - 1.2
29/05:42pm 10.8 5.8 10.8 100 0.0 NNW 28 37 15 20 1009.8 - 1.2
29/05:36pm 10.7 6.8 10.7 100 0.0 NNW 22 30 12 16 1009.8 - 1.2
29/05:30pm 10.7 7.1 10.5 99 0.1 NNW 20 28 11 15 1009.7 - 1.2
29/05:26pm 10.7 6.7 10.5 99 0.1 NNW 22 28 12 15 1009.7 - 1.2
29/05:00pm 11.0 5.2 10.7 98 0.2 NNW 32 37 17 20 1009.3 - 0.0
29/04:59pm 11.0 5.2 10.7 98 0.2 NNW 32 37 17 20 1009.3 - 0.0
29/04:30pm 11.5 5.2 11.2 98 0.2 NNW 35 48 19 26 1009.1 - 0.0
29/04:00pm 11.6 3.8 11.3 98 0.2 NNW 43 56 23 30 1008.9 - 0.0
29/03:57pm 11.4 3.4 11.1 98 0.2 NNW 44 56 24 30 1008.8 - 0.0
29/03:43pm 11.1 3.2 10.8 98 0.2 NNW 43 57 23 31 1008.6 - 0.0
29/03:30pm 11.4 4.3 10.9 97 0.3 NNW 39 56 21 30 1008.3 - 0.0
29/03:00pm 11.5 4.1 9.9 90 0.8 NNW 39 57 21 31 1008.5 1009.3 0.0
29/02:30pm 12.5 4.7 9.9 84 1.4 NNW 41 52 22 28 1008.3 - 0.0
29/02:00pm 11.2 3.4 9.6 90 0.8 NNW 41 52 22 28 1008.3 - 0.0
29/01:30pm 11.3 3.4 9.4 88 1.0 NNW 41 50 22 27 1008.4 - 0.0
29/01:25pm 11.2 4.1 9.5 89 0.9 NNW 37 50 20 27 1008.4 - 0.0
29/01:07pm 11.0 4.3 9.6 91 0.7 NNW 35 57 19 31 1008.6 - 0.0
29/01:00pm 10.8 4.6 10.0 95 0.4 NNW 33 48 18 26 1008.9 - 0.0
29/12:30pm 10.4 2.2 9.6 95 0.4 NNW 43 61 23 33 1009.1 - 0.0
29/12:24pm 10.4 2.6 9.6 95 0.4 NNW 41 61 22 33 1009.2 - 0.0
29/12:00pm 10.4 2.5 9.3 93 0.6 NNW 41 57 22 31 1009.7 1010.5 0.0
29/11:30am 10.6 2.7 9.5 93 0.6 NNW 41 57 22 31 1010.3 - 0.0
29/11:03am 10.4 2.5 9.2 92 0.6 NNW 41 59 22 32 1009.9 - 0.0
29/11:00am 10.1 2.1 9.0 93 0.6 NNW 41 52 22 28 1010.0 - 0.0
29/10:50am 10.3 2.3 8.9 91 0.7 NNW 41 54 22 29 1010.4 - 0.0
29/10:48am 10.3 2.7 8.9 91 0.7 NNW 39 54 21 29 1010.3 - 0.0
29/10:30am 10.1 3.2 9.0 93 0.6 N 35 44 19 24 1010.3 - 0.0
29/10:00am 9.5 4.0 9.2 98 0.2 N 28 35 15 19 1010.5 - 0.0
29/09:45am 9.1 3.1 8.8 98 0.2 N 30 39 16 21 1010.1 - 0.0
29/09:30am 9.1 3.1 8.8 98 0.2 N 30 39 16 21 1009.8 - 0.0
29/09:00am 9.3 3.3 8.7 96 0.3 N 30 43 16 23 1010.4 1011.2 0.0
29/08:30am 8.9 2.9 8.6 98 0.1 N 30 43 16 23 1010.8 - 0.0
29/08:00am 7.4 1.8 7.1 98 0.1 N 26 35 14 19 1010.9 - 0.0
29/07:30am 7.3 1.7 7.0 98 0.1 N 26 35 14 19 1010.8 - 0.0
29/07:00am 7.3 2.0 7.0 98 0.1 N 24 32 13 17 1010.7 - 0.0
29/06:30am 7.2 1.2 6.9 98 0.1 N 28 44 15 24 1010.2 - 0.0
29/06:26am 7.2 1.2 6.9 98 0.1 N 28 44 15 24 1010.3 - 0.0
29/06:00am 8.8 0.9 8.0 95 0.4 NNW 39 54 21 29 1010.2 1011.0 0.0
29/05:53am 8.9 1.9 8.5 97 0.2 NNW 35 54 19 29 1010.2 - 0.0
29/05:30am 7.4 1.4 7.1 98 0.1 N 28 37 15 20 1010.3 - 0.0
29/05:00am 7.7 1.4 7.4 98 0.1 N 30 37 16 20 1010.1 - 0.0
29/04:30am 7.4 1.4 7.1 98 0.1 N 28 35 15 19 1010.1 - 0.0
29/04:00am 7.0 1.0 6.9 99 0.0 N 28 35 15 19 1010.3 - 0.0
29/03:30am 7.0 0.6 6.9 99 0.0 N 30 37 16 20 1010.4 - 0.0
29/03:00am 7.1 0.7 7.0 99 0.0 N 30 43 16 23 1010.5 1011.3 0.0
29/02:30am 7.9 1.6 7.6 98 0.1 N 30 37 16 20 1010.6 - 0.0
29/02:12am 8.0 1.2 7.7 98 0.1 N 33 41 18 22 1010.6 - 0.0
29/02:00am 8.0 1.8 7.7 98 0.1 N 30 37 16 20 1010.9 - 0.0
29/01:30am 8.1 1.9 7.8 98 0.1 N 30 37 16 20 1011.5 - 0.0
29/01:16am 8.3 2.5 8.0 98 0.1 N 28 35 15 19 1011.6 - 0.0
29/01:00am 7.1 2.6 7.0 99 0.0 N 20 26 11 14 1011.9 - 0.0
29/12:30am 7.3 2.1 7.2 99 0.0 N 24 30 13 16 1012.2 - 0.0
29/12:00am 7.4 1.5 7.3 99 0.0 N 28 35 15 19 1012.4 1013.2 0.0
 
Date/Time
EST
Temp
°C
App
Temp
°C
Dew
Point
Rel
Hum
%
Delta-T
°C
Wind Press
QNH
hPa
Press
MSL
hPa
Rain
since 9 am
mm
Dir
 
Spd
km/h
Gust
km/h
Spd
kts
Gust
kts
28/11:30pm 7.2 1.6 7.1 99 0.0 N 26 32 14 17 1012.8 - 0.0
28/11:00pm 7.2 1.2 7.1 99 0.0 N 28 32 15 17 1013.0 - 0.0
28/10:30pm 7.5 1.9 7.2 98 0.1 N 26 32 14 17 1013.2 - 0.0
28/10:00pm 7.5 1.9 7.2 98 0.1 N 26 32 14 17 1013.3 - 0.0
28/09:30pm 8.0 1.8 7.7 98 0.1 N 30 35 16 19 1013.1 - 0.0
28/09:00pm 8.4 2.5 7.3 93 0.5 N 28 33 15 18 1013.0 1013.8 0.0
28/08:30pm 8.7 3.2 7.5 92 0.6 N 26 32 14 17 1013.0 - 0.0
28/08:00pm 8.0 4.1 7.2 95 0.4 N 17 22 9 12 1013.2 - 0.0
28/07:30pm 8.6 3.4 7.1 90 0.7 N 24 30 13 16 1013.3 - 0.0
28/07:00pm 9.5 3.6 7.4 87 1.0 N 28 33 15 18 1012.8 - 0.0
28/06:30pm 10.0 4.1 7.4 84 1.3 N 28 35 15 19 1012.8 - 0.0
28/06:00pm 10.0 4.5 7.4 84 1.3 N 26 32 14 17 1012.8 1013.6 0.0
28/05:30pm 10.2 6.0 8.3 88 0.9 N 20 24 11 13 1013.0 - 0.0
28/05:00pm 11.6 7.0 8.1 79 1.8 N 22 30 12 16 1012.9 - 0.0
28/04:30pm 12.6 7.6 8.1 74 2.3 NNW 24 32 13 17 1013.2 - 0.0
28/04:00pm 13.2 7.1 8.3 72 2.5 NNW 30 37 16 20 1013.2 - 0.0
28/03:30pm 13.0 6.4 7.9 71 2.6 NNW 32 39 17 21 1013.1 - 0.0
28/03:00pm 13.5 8.3 8.8 73 2.4 N 26 32 14 17 1013.1 1013.9 0.0
28/02:30pm 12.7 7.0 8.4 75 2.2 N 28 44 15 24 1012.9 - 0.0
28/02:00pm 12.5 5.7 7.6 72 2.4 N 33 43 18 23 1013.1 - 0.0
28/01:30pm 12.1 5.3 7.8 75 2.1 N 33 41 18 22 1013.5 - 0.0
28/01:00pm 11.6 4.9 7.5 76 2.0 N 32 39 17 21 1014.1 - 0.0
28/12:30pm 11.1 4.3 6.8 75 2.1 N 32 41 17 22 1014.7 - 0.0
28/12:00pm 10.5 3.4 6.5 76 1.9 N 33 41 18 22 1014.9 1015.7 0.0
28/11:30am 10.2 3.8 6.9 80 1.6 N 30 39 16 21 1015.2 - 0.0
28/11:00am 9.2 2.2 5.8 79 1.6 N 32 41 17 22 1015.5 - 0.0
28/10:30am 8.5 1.3 5.8 83 1.3 N 33 44 18 24 1015.9 - 0.0
28/10:00am 7.8 0.5 5.4 85 1.1 N 33 41 18 22 1015.7 - 0.0
28/09:30am 7.1 0.0 5.3 88 0.8 N 32 39 17 21 1015.8 - 0.0
28/09:00am 6.5 -0.9 5.0 90 0.7 N 33 41 18 22 1015.8 1016.7 0.2
28/08:30am 5.8 -1.0 4.9 94 0.4 N 30 39 16 21 1015.9 - 0.2
28/08:00am 3.9 -2.4 3.6 98 0.1 N 26 32 14 17 1016.1 - 0.2
28/07:30am 4.1 -1.8 3.8 98 0.1 N 24 30 13 16 1016.2 - 0.2
28/07:00am 4.1 -1.4 3.8 98 0.1 N 22 30 12 16 1016.3 - 0.2
28/06:30am 4.4 -1.5 4.1 98 0.1 N 24 30 13 16 1016.1 - 0.2
28/06:00am 5.0 -1.1 4.7 98 0.1 N 26 30 14 16 1015.9 1016.8 0.2
28/05:30am 5.0 -1.5 4.7 98 0.1 N 28 35 15 19 1015.9 - 0.2
28/05:00am 4.9 -0.1 4.8 99 0.0 N 20 28 11 15 1016.3 - 0.2
28/04:30am 4.8 -0.9 4.7 99 0.0 NNE 24 32 13 17 1016.5 - 0.2
28/04:00am 4.6 -0.2 4.5 99 0.0 NNE 19 24 10 13 1016.8 - 0.0
28/03:30am 4.7 -0.1 4.6 99 0.0 NE 19 22 10 12 1017.1 - 0.0
28/03:00am 5.2 -0.9 4.9 98 0.1 NNE 26 30 14 16 1017.2 1018.0 0.0
28/02:30am 5.4 -0.3 5.1 98 0.1 NNE 24 28 13 15 1017.6 - 0.0
28/02:00am 5.7 0.5 5.4 98 0.1 NNE 22 28 12 15 1018.1 - 0.0
28/01:30am 6.4 0.9 6.1 98 0.1 NNE 24 32 13 17 1018.1 - 0.0
28/01:00am 5.6 0.4 5.5 99 0.0 N 22 26 12 14 1018.4 - 0.0
28/12:30am 6.0 1.2 5.7 98 0.1 N 20 24 11 13 1018.6 - 0.0
28/12:00am 6.3 0.8 6.0 98 0.1 NNE 24 28 13 15 1018.7 1019.6 0.0
 
Date/Time
EST
Temp
°C
App
Temp
°C
Dew
Point
Rel
Hum
%
Delta-T
°C
Wind Press
QNH
hPa
Press
MSL
hPa
Rain
since 9 am
mm
Dir
 
Spd
km/h
Gust
km/h
Spd
kts
Gust
kts
27/11:30pm 6.7 0.9 6.4 98 0.1 N 26 33 14 18 1018.9 - 0.0
27/11:00pm 7.0 1.3 6.7 98 0.1 N 26 32 14 17 1019.4 - 0.0
27/10:30pm 7.2 1.5 6.9 98 0.1 N 26 32 14 17 1019.8 - 0.0
27/10:00pm 7.3 1.3 7.0 98 0.1 N 28 32 15 17 1019.9 - 0.0
27/09:30pm 7.3 1.7 7.0 98 0.1 N 26 32 14 17 1020.0 - 0.0
27/09:00pm 7.4 2.2 7.1 98 0.1 N 24 30 13 16 1020.2 1021.1 0.0
27/08:30pm 7.2 2.3 6.9 98 0.1 N 22 28 12 15 1020.2 - 0.0
27/08:00pm 7.7 3.5 7.4 98 0.1 N 19 24 10 13 1020.4 - 0.0
27/07:30pm 7.9 3.2 7.6 98 0.1 N 22 26 12 14 1020.4 - 0.0
27/07:00pm 8.0 3.9 7.7 98 0.1 N 19 22 10 12 1020.7 - 0.0
27/06:30pm 8.8 5.2 8.4 97 0.2 N 17 20 9 11 1020.4 - 0.0
27/06:00pm 8.9 3.5 8.1 95 0.4 N 26 30 14 16 1019.8 1020.7 0.0
27/05:30pm 9.4 4.4 8.2 92 0.6 N 24 30 13 16 1019.5 - 0.0
27/05:00pm 10.2 4.4 8.1 87 1.0 N 28 33 15 18 1019.2 - 0.0
27/04:30pm 10.7 5.4 8.6 87 1.1 N 26 30 14 16 1020.1 - 0.0
27/04:00pm 11.3 5.7 8.9 85 1.2 N 28 35 15 19 1020.4 - 0.0
27/03:30pm 10.7 5.4 8.3 85 1.2 NNW 26 33 14 18 1020.5 - 0.0
27/03:00pm 10.7 5.8 8.6 87 1.1 NNW 24 30 13 16 1020.5 1021.4 0.0
27/02:30pm 10.7 5.2 9.3 91 0.7 N 28 35 15 19 1020.4 - 0.0
27/02:00pm 10.0 4.5 9.1 94 0.5 N 28 33 15 18 1020.4 - 0.0
27/01:30pm 10.0 4.1 9.1 94 0.5 N 30 39 16 21 1020.8 - 0.0
27/01:00pm 9.7 3.9 9.4 98 0.2 N 30 39 16 21 1021.2 - 0.0
27/12:30pm 8.4 2.0 8.4 100 0.0 N 32 39 17 21 1021.8 - 0.0
27/12:00pm 7.7 - 7.8 - - N 28 33 15 18 1022.8 1023.7 0.0
27/11:30am 7.3 1.4 7.3 100 0.0 N 28 35 15 19 1023.4 - 0.0
27/11:15am 7.3 0.6 7.3 100 0.0 N 32 37 17 20 1023.4 - 0.0
27/11:00am 7.2 0.5 7.2 100 0.0 N 32 37 17 20 1023.7 - 0.0
27/10:30am 6.7 0.6 6.7 100 0.0 N 28 33 15 18 1024.0 - 0.0
27/10:00am 6.3 0.9 6.3 100 0.0 N 24 30 13 16 1024.4 - 0.0
27/09:30am 6.3 0.5 6.3 100 0.0 N 26 32 14 17 1024.4 - 0.0
27/09:00am 5.7 1.1 5.7 100 0.0 N 19 24 10 13 1024.6 1025.5 0.2
27/08:30am 5.1 0.8 5.1 100 0.0 N 17 20 9 11 1024.7 - 0.2
27/08:00am 4.5 -0.3 4.5 100 0.0 NNE 19 22 10 12 1024.3 - 0.2
27/07:30am 4.3 -0.6 4.3 100 0.0 N 19 22 10 12 1024.5 - 0.2
27/07:00am 4.7 -0.1 4.7 100 0.0 N 19 24 10 13 1024.4 - 0.2

Other Formats:

Comma delimited format used in spreadsheet applications
http://www.bom.gov.au/fwo/IDV60801/IDV60801.94852.axf

JavaScript Object Notation format (JSON) in row-major order
http://www.bom.gov.au/fwo/IDV60801/IDV60801.94852.json